Time;durP1;ratioP1;P1;durP2;ratioP2;P2;SDS_P1;SDS_P2;PMS_P1;PMS_P2;Temp;Humidity;BMP_temperature;BMP_pressure;BME280_temperature;BME280_humidity;BME280_pressure;Samples;Min_cycle;Max_cycle;Signal;HPM_P1;HPM_P2
2024/03/30 00:01:27;;;;;;;;;12.00;10.00;;;;;9.64;60.92;99439.77;113379;223;40582;-53
2024/03/30 00:04:05;;;;;;;;;14.00;12.00;;;;;9.63;61.03;99438.95;113231;223;161017;-53
2024/03/30 00:06:45;;;;;;;;;13.00;10.00;;;;;9.61;61.40;99435.26;113381;223;39224;-53
2024/03/30 00:09:26;;;;;;;;;14.00;11.00;;;;;9.66;61.65;99439.36;113381;223;39731;-53
2024/03/30 00:12:04;;;;;;;;;12.00;10.00;;;;;9.71;61.70;99443.61;113156;223;161108;-53
2024/03/30 00:14:50;;;;;;;;;21.33;14.67;;;;;9.75;61.82;99437.58;113387;223;38885;-54
2024/03/30 00:17:33;;;;;;;;;12.00;11.00;;;;;9.82;62.30;99433.52;113106;223;161509;-55
2024/03/30 00:20:10;;;;;;;;;13.50;10.50;;;;;9.88;62.19;99432.47;113324;223;39693;-54
2024/03/30 00:22:54;;;;;;;;;15.00;12.00;;;;;9.95;62.32;99433.13;113152;223;162440;-55
2024/03/30 00:25:30;;;;;;;;;15.00;13.00;;;;;10.02;62.32;99426.29;113312;222;40325;-54
2024/03/30 00:28:12;;;;;;;;;18.00;14.00;;;;;10.05;62.11;99431.21;113150;223;161273;-54
2024/03/30 00:30:48;;;;;;;;;21.00;15.00;;;;;10.05;62.18;99434.35;113328;226;40687;-56
2024/03/30 00:33:28;;;;;;;;;15.00;12.00;;;;;10.06;62.44;99431.98;113325;223;39647;-56
2024/03/30 00:36:07;;;;;;;;;14.00;10.00;;;;;10.07;62.51;99427.96;113124;226;160864;-55
2024/03/30 00:38:47;;;;;;;;;17.00;13.00;;;;;10.13;62.77;99422.83;113325;223;39645;-56
2024/03/30 00:41:27;;;;;;;;;18.00;16.00;;;;;10.17;62.60;99420.89;113179;223;160983;-56
2024/03/30 00:44:05;;;;;;;;;14.00;12.00;;;;;10.18;62.74;99410.14;113301;226;40328;-54
2024/03/30 00:46:39;;;;;;;;;17.50;14.00;;;;;10.21;62.75;99412.87;113199;222;160899;-54
2024/03/30 00:49:20;;;;;;;;;15.00;12.00;;;;;10.22;62.68;99410.54;113334;226;39912;-55
2024/03/30 00:52:03;;;;;;;;;17.00;13.00;;;;;10.26;62.94;99409.90;113210;223;160922;-55
2024/03/30 00:54:43;;;;;;;;;16.00;13.00;;;;;10.33;62.92;99405.58;113314;225;40523;-55
2024/03/30 00:57:24;;;;;;;;;17.00;13.00;;;;;10.37;62.99;99410.66;113379;226;39060;-55
2024/03/30 01:00:04;;;;;;;;;12.00;10.00;;;;;10.37;62.70;99412.61;113182;223;160818;-55
2024/03/30 01:02:45;;;;;;;;;13.00;11.00;;;;;10.34;62.87;99417.11;113361;223;38888;-55
2024/03/30 01:05:26;;;;;;;;;14.33;11.67;;;;;10.34;63.04;99416.66;113205;223;161968;-53
2024/03/30 01:08:07;;;;;;;;;13.00;11.00;;;;;10.36;63.33;99415.41;113348;223;40866;-53
2024/03/30 01:10:47;;;;;;;;;12.00;10.00;;;;;10.38;63.24;99412.03;113165;223;161063;-53
2024/03/30 01:13:21;;;;;;;;;13.00;10.00;;;;;10.39;63.36;99410.91;113341;223;40492;-53
2024/03/30 01:15:57;;;;;;;;;14.00;12.00;;;;;10.40;63.44;99410.17;113168;226;161095;-52
2024/03/30 01:18:34;;;;;;;;;17.00;14.00;;;;;10.43;63.73;99413.14;113286;223;39108;-52
2024/03/30 01:21:13;;;;;;;;;14.00;12.00;;;;;10.47;63.70;99418.36;113363;226;39627;-52
2024/03/30 01:23:54;;;;;;;;;12.00;10.00;;;;;10.47;63.74;99418.73;113149;223;161252;-53
2024/03/30 01:26:41;;;;;;;;;14.00;11.33;;;;;10.44;63.64;99423.16;113291;225;39373;-52
2024/03/30 01:29:24;;;;;;;;;13.67;12.00;;;;;10.38;63.74;99422.29;113143;223;161088;-55
2024/03/30 01:32:03;;;;;;;;;20.00;15.00;;;;;10.35;63.92;99425.63;113338;226;38931;-56
2024/03/30 01:34:39;;;;;;;;;14.00;11.00;;;;;10.33;64.10;99424.55;113185;223;161077;-56
2024/03/30 01:37:16;;;;;;;;;19.00;15.50;;;;;10.30;64.08;99428.34;113291;223;40813;-56
2024/03/30 01:39:54;;;;;;;;;18.00;13.00;;;;;10.28;64.20;99422.91;113156;226;161073;-52
2024/03/30 01:42:35;;;;;;;;;14.50;12.00;;;;;10.26;64.17;99423.73;113345;225;39201;-52
2024/03/30 01:45:09;;;;;;;;;14.00;12.00;;;;;10.24;64.25;99423.83;113405;223;40573;-53
2024/03/30 01:47:53;;;;;;;;;12.00;10.00;;;;;10.22;64.72;99424.50;112501;228;846703;-53
2024/03/30 01:50:33;;;;;;;;;15.00;11.00;;;;;10.19;64.61;99432.02;113351;224;40994;-55
2024/03/30 01:53:13;;;;;;;;;14.00;10.50;;;;;10.17;64.83;99429.61;113178;226;161007;-55
2024/03/30 01:55:53;;;;;;;;;14.00;10.50;;;;;10.15;64.69;99427.58;113549;226;39506;-56
2024/03/30 01:58:35;;;;;;;;;15.00;12.00;;;;;10.14;64.90;99424.88;113159;223;161671;-56
2024/03/30 02:01:15;;;;;;;;;16.00;12.00;;;;;10.14;65.10;99421.35;113331;226;40524;-56
2024/03/30 02:03:50;;;;;;;;;20.00;13.00;;;;;10.19;65.33;99421.55;113176;227;161879;-55
2024/03/30 02:06:28;;;;;;;;;17.00;14.00;;;;;10.24;65.39;99416.64;113394;226;40300;-56
2024/03/30 02:09:10;;;;;;;;;18.00;14.00;;;;;10.27;65.55;99416.76;113574;221;39065;-53
2024/03/30 02:11:50;;;;;;;;;19.00;16.00;;;;;10.29;65.79;99414.22;113135;223;161855;-54
2024/03/30 02:14:32;;;;;;;;;16.67;12.67;;;;;10.32;65.84;99418.08;113313;223;40981;-56
2024/03/30 02:17:17;;;;;;;;;23.50;17.00;;;;;10.35;65.76;99416.20;113211;223;161027;-57
2024/03/30 02:20:00;;;;;;;;;23.00;15.00;;;;;10.37;65.90;99419.44;113415;223;39897;-53
2024/03/30 02:22:38;;;;;;;;;20.00;15.00;;;;;10.38;65.78;99422.54;113142;223;161929;-53
2024/03/30 02:25:21;;;;;;;;;12.00;10.00;;;;;10.39;65.82;99425.70;113369;223;39458;-53
2024/03/30 02:27:55;;;;;;;;;16.00;12.00;;;;;10.36;66.01;99431.48;113130;223;161199;-53
2024/03/30 02:30:36;;;;;;;;;17.00;13.00;;;;;10.34;66.03;99431.15;113376;223;40068;-54
2024/03/30 02:33:14;;;;;;;;;15.00;11.00;;;;;10.32;66.15;99435.14;113406;223;39609;-54
2024/03/30 02:35:58;;;;;;;;;12.00;10.00;;;;;10.28;66.20;99433.17;113222;226;160808;-56
2024/03/30 02:38:44;;;;;;;;;13.00;11.00;;;;;10.26;66.22;99435.82;113606;221;39808;-56
2024/03/30 02:41:25;;;;;;;;;13.50;11.00;;;;;10.23;66.24;99434.00;113300;226;160686;-54
2024/03/30 02:44:03;;;;;;;;;14.00;11.00;;;;;10.20;66.59;99435.16;113400;226;39006;-54
2024/03/30 02:46:45;;;;;;;;;15.00;11.00;;;;;10.17;66.44;99438.24;113191;223;160960;-54
2024/03/30 02:49:25;;;;;;;;;13.00;12.00;;;;;10.14;66.66;99433.27;113371;223;40148;-53
2024/03/30 02:52:08;;;;;;;;;13.00;10.00;;;;;10.12;66.73;99431.02;113344;226;161161;-53
2024/03/30 02:54:48;;;;;;;;;16.00;13.00;;;;;10.13;67.04;99434.05;113330;222;39619;-55
2024/03/30 02:57:29;;;;;;;;;12.00;10.00;;;;;10.14;67.20;99434.91;113331;223;39366;-55
2024/03/30 03:00:09;;;;;;;;;10.00;8.00;;;;;10.12;67.12;99433.66;113136;223;161522;-56
2024/03/30 03:02:48;;;;;;;;;14.00;12.00;;;;;10.09;67.04;99434.98;113566;221;39400;-57
2024/03/30 03:05:31;;;;;;;;;16.00;11.00;;;;;10.07;67.00;99438.73;113263;226;162393;-53
2024/03/30 03:08:08;;;;;;;;;12.50;9.50;;;;;10.04;67.39;99434.41;113315;223;41071;-52
2024/03/30 03:14:43;;;;;;;;;13.00;10.00;;;;;10.03;67.65;99441.67;113406;223;38813;-53
2024/03/30 03:17:21;;;;;;;;;17.00;14.00;;;;;10.05;67.70;99436.36;113205;223;161249;-53
2024/03/30 03:20:05;;;;;;;;;17.00;12.00;;;;;10.11;68.34;99436.94;113425;223;41145;-53
2024/03/30 03:22:45;;;;;;;;;13.00;11.00;;;;;10.13;68.16;99437.02;113193;226;160891;-53
2024/03/30 03:25:30;;;;;;;;;15.00;11.00;;;;;10.12;68.21;99437.82;113348;223;39632;-54
2024/03/30 03:28:08;;;;;;;;;14.50;12.00;;;;;10.14;68.22;99439.73;113210;223;161078;-54
2024/03/30 03:30:44;;;;;;;;;13.00;10.00;;;;;10.14;68.34;99441.73;113362;227;39255;-54
2024/03/30 03:33:19;;;;;;;;;12.00;11.00;;;;;10.15;68.45;99442.94;113333;223;38985;-54
2024/03/30 03:36:03;;;;;;;;;15.00;11.00;;;;;10.15;68.70;99445.30;113133;227;161013;-55
2024/03/30 03:38:46;;;;;;;;;13.33;10.00;;;;;10.17;68.90;99447.42;113328;223;39123;-54
2024/03/30 03:41:27;;;;;;;;;16.50;12.50;;;;;10.18;68.73;99443.02;113120;223;161026;-55
2024/03/30 03:44:08;;;;;;;;;14.00;12.00;;;;;10.18;68.80;99446.46;113341;223;40217;-53
2024/03/30 03:46:52;;;;;;;;;15.00;11.00;;;;;10.15;69.03;99452.23;113171;223;161040;-53
2024/03/30 03:49:32;;;;;;;;;11.33;8.33;;;;;10.17;69.34;99451.07;113356;226;39712;-55
2024/03/30 03:52:20;;;;;;;;;16.50;13.50;;;;;10.18;69.23;99448.42;113160;223;162365;-55
2024/03/30 03:55:02;;;;;;;;;12.00;10.00;;;;;10.20;69.51;99445.41;113326;224;39933;-54
2024/03/30 03:57:39;;;;;;;;;15.00;12.00;;;;;10.20;69.82;99446.33;113329;223;39616;-55
2024/03/30 04:00:15;;;;;;;;;13.00;10.00;;;;;10.22;69.56;99448.66;113180;223;161449;-52
2024/03/30 04:02:53;;;;;;;;;9.00;8.00;;;;;10.24;69.66;99450.32;113334;223;40350;-53
2024/03/30 04:05:35;;;;;;;;;15.00;11.00;;;;;10.23;69.58;99456.13;113181;223;161415;-54
2024/03/30 04:08:22;;;;;;;;;17.00;14.00;;;;;10.22;69.53;99457.76;113340;223;39033;-55
2024/03/30 04:11:08;;;;;;;;;14.00;11.00;;;;;10.21;69.63;99466.86;113233;226;160949;-54
2024/03/30 04:13:52;;;;;;;;;14.50;12.00;;;;;10.20;69.72;99472.74;113388;223;40680;-53
2024/03/30 04:16:34;;;;;;;;;17.00;12.00;;;;;10.16;69.69;99474.75;113164;223;161151;-55
2024/03/30 04:19:17;;;;;;;;;19.00;15.00;;;;;10.09;69.95;99482.14;113318;226;39747;-53
2024/03/30 04:21:56;;;;;;;;;11.00;9.00;;;;;10.03;70.25;99485.39;113350;223;40025;-54
2024/03/30 04:24:38;;;;;;;;;12.00;10.00;;;;;9.98;70.03;99490.08;113275;224;40329;-53
2024/03/30 04:27:18;;;;;;;;;13.00;11.00;;;;;9.91;70.14;99495.27;113338;223;39876;-53
2024/03/30 04:29:56;;;;;;;;;12.00;10.00;;;;;9.85;70.35;99497.63;113158;223;160976;-53
2024/03/30 04:32:34;;;;;;;;;16.00;13.00;;;;;9.79;70.35;99492.02;113573;225;39149;-53
2024/03/30 04:35:11;;;;;;;;;16.00;12.00;;;;;9.75;70.54;99497.36;113297;222;160699;-55
2024/03/30 04:37:50;;;;;;;;;11.50;10.00;;;;;9.72;70.93;99496.55;113509;223;39489;-55
2024/03/30 04:40:30;;;;;;;;;11.00;9.50;;;;;9.73;71.22;99499.08;113349;222;161611;-54
2024/03/30 04:43:08;;;;;;;;;11.00;9.00;;;;;9.72;71.27;99496.91;113472;225;38876;-54
2024/03/30 04:45:51;;;;;;;;;12.67;10.00;;;;;9.72;71.28;99499.98;113637;222;39830;-55
2024/03/30 04:48:32;;;;;;;;;17.00;12.00;;;;;9.74;71.60;99498.11;113351;226;39997;-54
2024/03/30 04:51:08;;;;;;;;;12.50;10.00;;;;;9.85;71.66;99500.38;113617;226;39286;-54
2024/03/30 04:53:42;;;;;;;;;12.00;10.00;;;;;9.91;71.67;99504.15;113291;222;161700;-55
2024/03/30 04:56:24;;;;;;;;;12.00;10.00;;;;;9.95;71.66;99505.96;113681;222;39273;-57
2024/03/30 04:58:59;;;;;;;;;10.33;9.67;;;;;9.98;71.89;99511.34;113448;222;161340;-55
2024/03/30 05:01:45;;;;;;;;;15.00;11.00;;;;;10.04;72.03;99513.28;113532;223;39551;-55
2024/03/30 05:04:24;;;;;;;;;12.00;11.00;;;;;10.15;71.95;99510.34;113193;226;161606;-53
2024/03/30 05:07:06;;;;;;;;;14.00;12.00;;;;;10.26;71.83;99505.71;113491;222;40023;-53
2024/03/30 05:09:41;;;;;;;;;13.50;10.00;;;;;10.32;71.76;99499.27;113625;222;39537;-55
2024/03/30 05:12:23;;;;;;;;;12.50;10.50;;;;;10.38;71.74;99500.02;113196;222;160816;-55
2024/03/30 05:14:58;;;;;;;;;14.00;10.67;;;;;10.38;71.63;99495.56;113352;224;40500;-53
2024/03/30 05:17:37;;;;;;;;;13.00;11.00;;;;;10.53;72.01;99493.88;113244;223;163207;-53
2024/03/30 05:23:11;;;;;;;;;13.00;11.00;;;;;13.20;70.48;99473.98;113248;222;161442;-55
2024/03/30 05:25:46;;;;;;;;;12.00;10.00;;;;;15.10;69.26;99465.20;113466;223;39459;-56
2024/03/30 05:28:26;;;;;;;;;14.00;11.00;;;;;16.69;66.85;99465.39;113383;222;161445;-55
2024/03/30 05:31:20;;;;;;;;;16.00;13.00;;;;;17.67;63.25;99461.36;113441;223;39199;-52
2024/03/30 05:33:57;;;;;;;;;12.00;10.00;;;;;17.62;60.03;99456.95;113633;222;40139;-53
2024/03/30 05:36:32;;;;;;;;;16.00;14.00;;;;;17.14;59.46;99458.25;113427;226;40193;-53
2024/03/30 05:39:06;;;;;;;;;11.00;10.00;;;;;16.84;59.32;99461.58;113660;226;39500;-53
2024/03/30 05:41:46;;;;;;;;;14.00;12.00;;;;;16.06;59.72;99466.58;113258;223;160772;-54
2024/03/30 05:44:27;;;;;;;;;14.00;12.00;;;;;15.50;59.90;99465.65;113606;226;39732;-55
2024/03/30 05:47:06;;;;;;;;;12.00;10.00;;;;;14.92;60.35;99458.92;113363;222;161146;-56
2024/03/30 05:49:49;;;;;;;;;10.00;9.00;;;;;14.51;61.18;99466.07;113545;222;40110;-53
2024/03/30 05:52:28;;;;;;;;;10.00;8.50;;;;;14.35;61.81;99465.96;113391;226;160916;-53
2024/03/30 05:55:06;;;;;;;;;12.00;10.00;;;;;14.27;62.33;99475.39;113472;226;39459;-55
2024/03/30 05:57:43;;;;;;;;;13.00;10.00;;;;;14.85;62.47;99472.64;113569;226;40001;-55
2024/03/30 06:00:18;;;;;;;;;10.00;8.50;;;;;17.29;61.53;99465.09;113200;226;161569;-55
2024/03/30 06:02:59;;;;;;;;;9.00;8.00;;;;;19.54;59.08;99460.73;113531;222;41121;-55
2024/03/30 06:05:40;;;;;;;;;12.00;9.00;;;;;21.53;57.05;99463.14;113269;222;160735;-55
2024/03/30 06:08:18;;;;;;;;;13.00;10.00;;;;;22.81;54.57;99457.56;113528;226;40807;-56
2024/03/30 06:10:55;;;;;;;;;12.00;9.00;;;;;23.79;51.65;99454.52;113256;222;161679;-57
2024/03/30 06:13:32;;;;;;;;;8.00;7.33;;;;;24.17;49.57;99460.03;113459;224;40215;-55
2024/03/30 06:16:11;;;;;;;;;10.00;9.00;;;;;24.30;48.41;99463.16;113380;226;161935;-54
2024/03/30 06:18:48;;;;;;;;;11.00;9.00;;;;;24.39;46.74;99466.15;113365;223;41109;-54
2024/03/30 06:21:25;;;;;;;;;11.00;9.00;;;;;24.25;46.54;99467.34;113330;222;40486;-55
2024/03/30 06:24:04;;;;;;;;;9.00;7.00;;;;;24.18;45.88;99469.00;113233;223;160893;-56
2024/03/30 06:26:43;;;;;;;;;9.00;7.00;;;;;24.00;45.91;99465.55;113566;226;40589;-57
2024/03/30 06:29:22;;;;;;;;;11.00;8.00;;;;;24.08;45.99;99462.46;113308;224;160779;-56
2024/03/30 06:32:06;;;;;;;;;10.00;9.00;;;;;24.21;44.76;99465.64;113486;226;39331;-56
2024/03/30 06:34:40;;;;;;;;;10.00;9.00;;;;;23.45;44.85;99469.57;113346;226;160993;-53
2024/03/30 06:37:20;;;;;;;;;10.50;8.00;;;;;22.88;45.35;99468.03;113392;223;39754;-55
2024/03/30 06:45:40;;;;;;;;;10.00;9.00;;;;;21.78;46.08;99469.06;113603;226;39975;-54
2024/03/30 06:48:20;;;;;;;;;9.00;8.00;;;;;21.75;46.14;99468.30;113226;224;160863;-54
2024/03/30 06:50:57;;;;;;;;;11.00;9.00;;;;;22.22;46.54;99466.15;113603;222;40095;-56
2024/03/30 06:53:33;;;;;;;;;9.00;7.00;;;;;22.74;45.97;99459.70;113283;223;161517;-54
2024/03/30 06:56:08;;;;;;;;;9.00;8.00;;;;;22.43;45.12;99469.23;113562;222;40789;-55
2024/03/30 06:58:49;;;;;;;;;11.00;9.00;;;;;22.34;45.72;99469.19;113334;222;160926;-54
2024/03/30 07:01:27;;;;;;;;;10.67;9.00;;;;;22.96;45.30;99464.08;113427;224;38967;-54
2024/03/30 07:04:05;;;;;;;;;10.00;8.00;;;;;23.57;45.37;99461.75;113409;226;161243;-55
2024/03/30 07:06:43;;;;;;;;;7.00;7.00;;;;;23.74;44.87;99468.83;113308;226;40721;-54
2024/03/30 07:09:22;;;;;;;;;11.00;9.00;;;;;23.96;45.46;99472.75;113565;222;40564;-55
2024/03/30 07:11:59;;;;;;;;;12.00;9.00;;;;;24.81;44.01;99475.91;113214;222;160974;-55
2024/03/30 07:14:40;;;;;;;;;11.00;10.00;;;;;25.02;43.39;99476.50;113590;222;38946;-56
2024/03/30 07:17:15;;;;;;;;;8.00;7.00;;;;;24.93;42.93;99483.92;113274;226;161215;-57
2024/03/30 07:19:50;;;;;;;;;8.00;8.00;;;;;25.29;42.47;99487.13;113528;222;39301;-56
2024/03/30 07:22:27;;;;;;;;;8.00;7.00;;;;;25.85;42.20;99487.45;113412;222;161522;-56
2024/03/30 07:25:01;;;;;;;;;8.00;7.00;;;;;25.42;41.74;99487.70;113502;226;39290;-54
2024/03/30 07:27:39;;;;;;;;;7.00;6.00;;;;;25.37;41.37;99487.52;113656;222;40926;-53
2024/03/30 07:30:16;;;;;;;;;8.00;6.00;;;;;25.14;41.91;99485.32;113266;226;160672;-54
2024/03/30 07:32:52;;;;;;;;;9.00;8.00;;;;;25.19;41.97;99482.59;113601;226;40618;-53
2024/03/30 07:35:27;;;;;;;;;12.00;8.00;;;;;25.27;41.82;99483.08;113265;226;160754;-55
2024/03/30 07:38:04;;;;;;;;;8.00;6.00;;;;;24.87;42.01;99489.73;113571;226;40200;-54
2024/03/30 07:40:42;;;;;;;;;9.00;8.00;;;;;25.02;41.64;99490.01;113389;222;160916;-52
2024/03/30 07:43:24;;;;;;;;;7.00;7.00;;;;;25.30;41.40;99484.23;113436;223;39478;-52
2024/03/30 07:46:03;;;;;;;;;7.67;6.33;;;;;25.56;41.23;99479.66;113607;222;39384;-53
2024/03/30 07:48:42;;;;;;;;;8.00;7.00;;;;;25.73;41.07;99472.26;113256;226;40971;-53
2024/03/30 07:51:23;;;;;;;;;9.00;7.00;;;;;25.65;41.21;99471.89;113581;222;41867;-52
2024/03/30 07:54:04;;;;;;;;;7.00;7.00;;;;;25.36;41.14;99473.67;113174;222;160742;-55
2024/03/30 07:56:39;;;;;;;;;7.50;6.00;;;;;25.77;41.46;99465.35;113575;225;39807;-56
2024/03/30 07:59:17;;;;;;;;;7.33;6.00;;;;;26.86;41.06;99463.62;113300;223;160740;-54
2024/03/30 08:01:55;;;;;;;;;6.00;5.50;;;;;27.94;40.12;99463.34;113530;222;39300;-54
2024/03/30 08:04:29;;;;;;;;;6.00;5.00;;;;;28.96;39.35;99470.79;113387;225;161023;-55
2024/03/30 08:07:09;;;;;;;;;7.00;7.00;;;;;29.79;38.09;99466.20;113418;222;39557;-54
2024/03/30 08:09:54;;;;;;;;;7.00;6.00;;;;;30.67;36.93;99462.65;113642;225;39398;-54
2024/03/30 08:12:28;;;;;;;;;6.00;5.00;;;;;31.30;35.87;99464.04;113188;223;160616;-54
2024/03/30 08:15:08;;;;;;;;;6.00;5.00;;;;;31.46;35.44;99463.99;113403;223;39210;-55
2024/03/30 08:17:45;;;;;;;;;5.00;5.00;;;;;31.93;34.00;99460.38;113238;227;160627;-55
2024/03/30 08:20:25;;;;;;;;;6.00;5.00;;;;;31.78;34.59;99461.65;113365;223;41183;-55
2024/03/30 08:23:05;;;;;;;;;7.00;6.00;;;;;32.33;33.80;99463.42;113168;223;161383;-54
2024/03/30 08:25:47;;;;;;;;;8.00;6.00;;;;;32.75;32.82;99462.15;113310;223;40502;-54
2024/03/30 08:28:23;;;;;;;;;7.00;6.00;;;;;31.94;32.37;99462.02;113164;223;161402;-57
2024/03/30 08:31:00;;;;;;;;;5.00;5.00;;;;;32.13;32.47;99458.27;113398;223;39766;-54
2024/03/30 08:33:39;;;;;;;;;6.00;5.00;;;;;32.35;31.87;99457.65;113543;226;39365;-54
2024/03/30 08:36:22;;;;;;;;;7.00;5.00;;;;;32.00;32.26;99450.63;113136;223;161072;-55
2024/03/30 08:39:02;;;;;;;;;6.50;5.00;;;;;32.15;32.50;99445.89;113347;223;39982;-57
2024/03/30 08:41:44;;;;;;;;;7.00;6.00;;;;;32.49;31.82;99445.69;113160;223;161262;-54
2024/03/30 08:44:23;;;;;;;;;6.50;5.00;;;;;32.63;31.19;99435.53;113536;222;40482;-57
2024/03/30 08:47:02;;;;;;;;;7.00;6.00;;;;;32.67;30.73;99439.07;113334;222;160896;-57
2024/03/30 08:49:41;;;;;;;;;6.00;5.00;;;;;32.85;30.93;99446.82;113294;223;41087;-57
2024/03/30 08:52:18;;;;;;;;;6.00;5.00;;;;;32.92;30.54;99446.90;113166;227;161114;-57
2024/03/30 08:55:01;;;;;;;;;8.00;6.00;;;;;32.78;30.38;99443.83;113165;225;40424;-56
2024/03/30 08:57:41;;;;;;;;;6.00;5.00;;;;;32.77;29.76;99438.05;113306;227;39598;-57
2024/03/30 09:00:19;;;;;;;;;4.00;4.00;;;;;32.53;30.53;99437.09;113166;227;161557;-56
2024/03/30 09:02:55;;;;;;;;;5.00;4.00;;;;;32.59;30.26;99441.88;113294;223;39387;-56
2024/03/30 09:05:30;;;;;;;;;7.00;5.00;;;;;32.28;29.72;99443.45;113172;224;160696;-56
2024/03/30 09:08:10;;;;;;;;;5.00;4.00;;;;;31.76;29.90;99448.62;113334;224;40709;-57
2024/03/30 09:10:49;;;;;;;;;6.50;5.00;;;;;31.10;30.75;99448.22;113185;227;160976;-54
2024/03/30 09:13:34;;;;;;;;;5.00;5.00;;;;;30.97;30.16;99447.70;113330;223;40304;-54
2024/03/30 09:16:09;;;;;;;;;6.00;5.00;;;;;30.89;30.19;99442.30;113331;227;39092;-56
2024/03/30 09:18:46;;;;;;;;;5.00;4.00;;;;;30.79;30.71;99444.61;113375;227;39518;-53
2024/03/30 09:21:21;;;;;;;;;6.50;5.00;;;;;30.58;30.95;99438.68;113325;223;39880;-53
2024/03/30 09:24:00;;;;;;;;;6.00;5.00;;;;;30.60;30.81;99437.41;113139;225;162095;-59
2024/03/30 09:26:36;;;;;;;;;7.00;5.67;;;;;30.29;30.26;99431.77;113287;227;39355;-56
2024/03/30 09:29:17;;;;;;;;;6.00;4.00;;;;;29.64;30.68;99434.27;113149;224;160793;-56
2024/03/30 09:31:53;;;;;;;;;6.00;5.00;;;;;29.52;30.55;99433.67;113314;224;39187;-58
2024/03/30 09:34:32;;;;;;;;;5.00;4.00;;;;;29.58;30.88;99437.59;113132;224;161008;-55
2024/03/30 09:37:09;;;;;;;;;6.00;5.00;;;;;28.93;31.11;99439.05;113348;223;39812;-56
2024/03/30 09:39:49;;;;;;;;;5.00;5.00;;;;;28.12;31.45;99431.55;113312;224;39982;-54
2024/03/30 09:42:35;;;;;;;;;6.00;5.00;;;;;27.35;32.16;99430.23;113096;225;160828;-54
2024/03/30 09:45:13;;;;;;;;;7.50;6.00;;;;;27.15;32.77;99422.91;113352;224;39631;-55
2024/03/30 09:48:00;;;;;;;;;6.00;5.00;;;;;27.27;34.09;99420.39;112568;228;761417;-55
2024/03/30 09:50:36;;;;;;;;;4.00;3.00;;;;;27.38;34.71;99417.23;113343;227;39625;-53
2024/03/30 09:53:17;;;;;;;;;6.00;5.00;;;;;27.29;34.92;99418.98;113156;224;161076;-55
2024/03/30 09:55:56;;;;;;;;;6.00;5.00;;;;;27.45;34.44;99421.88;113379;227;39730;-56
2024/03/30 09:58:36;;;;;;;;;6.00;5.00;;;;;27.05;34.68;99417.48;113232;227;161082;-54
2024/03/30 10:01:14;;;;;;;;;6.00;6.00;;;;;26.75;34.60;99416.88;113355;225;39194;-55
2024/03/30 10:03:51;;;;;;;;;5.00;4.00;;;;;26.51;35.11;99415.24;113340;227;41342;-53
2024/03/30 10:06:30;;;;;;;;;7.00;5.00;;;;;26.45;35.15;99415.24;113181;227;160732;-53
2024/03/30 10:09:12;;;;;;;;;5.00;4.00;;;;;26.11;35.29;99415.73;113352;227;40973;-55
2024/03/30 10:11:51;;;;;;;;;4.00;4.00;;;;;25.93;36.06;99408.19;113120;227;160745;-56
2024/03/30 10:14:34;;;;;;;;;5.00;4.00;;;;;25.90;36.17;99407.62;113306;224;39004;-54
2024/03/30 10:17:11;;;;;;;;;6.00;5.00;;;;;25.70;35.91;99401.41;113116;224;162278;-54
2024/03/30 10:19:48;;;;;;;;;5.00;4.00;;;;;25.48;36.15;99404.21;113329;224;39749;-55
2024/03/30 10:22:24;;;;;;;;;7.00;6.00;;;;;25.36;36.62;99406.35;113124;227;161028;-55
2024/03/30 10:25:00;;;;;;;;;7.00;6.00;;;;;25.33;36.68;99403.05;113302;225;39126;-54
2024/03/30 10:27:37;;;;;;;;;5.00;5.00;;;;;25.19;36.72;99409.05;113343;224;38988;-60
2024/03/30 10:30:13;;;;;;;;;4.00;4.00;;;;;25.10;36.97;99411.45;113191;226;160764;-56
2024/03/30 10:32:54;;;;;;;;;6.00;5.00;;;;;25.16;37.17;99404.95;113401;227;40013;-55
2024/03/30 10:35:32;;;;;;;;;4.00;4.00;;;;;25.06;37.17;99408.95;113186;225;160597;-55
2024/03/30 10:38:11;;;;;;;;;5.50;5.00;;;;;24.98;37.22;99408.71;113318;227;39677;-56
2024/03/30 10:40:54;;;;;;;;;5.00;5.00;;;;;24.92;37.43;99406.11;113181;224;160972;-55
2024/03/30 10:43:35;;;;;;;;;6.00;5.00;;;;;24.91;37.20;99410.02;113339;225;40087;-53
2024/03/30 10:46:13;;;;;;;;;5.00;5.00;;;;;24.73;37.10;99404.83;113374;224;40712;-53
2024/03/30 10:48:49;;;;;;;;;6.00;4.75;;;;;24.64;37.11;99404.11;113388;226;39421;-55
2024/03/30 10:51:26;;;;;;;;;5.00;5.00;;;;;24.62;37.35;99402.95;113341;223;38863;-55
2024/03/30 10:54:14;;;;;;;;;6.00;5.00;;;;;24.67;37.20;99399.02;113188;225;160975;-53
2024/03/30 10:57:00;;;;;;;;;7.00;5.00;;;;;24.56;37.50;99394.39;113327;224;39520;-53
2024/03/30 10:59:41;;;;;;;;;6.00;5.00;;;;;24.53;37.60;99398.59;113183;227;161902;-53
2024/03/30 11:02:21;;;;;;;;;6.00;6.00;;;;;24.40;36.90;99397.45;113335;224;40201;-54
2024/03/30 11:05:04;;;;;;;;;5.00;4.00;;;;;24.26;37.41;99400.58;113178;227;161161;-52
2024/03/30 11:07:44;;;;;;;;;6.00;5.00;;;;;24.18;37.17;99398.73;113302;224;41555;-54
2024/03/30 11:10:23;;;;;;;;;4.00;4.00;;;;;24.18;37.54;99394.15;113316;227;40948;-55
2024/03/30 11:13:05;;;;;;;;;4.00;3.00;;;;;24.32;37.55;99399.58;113306;223;40042;-55
2024/03/30 11:15:48;;;;;;;;;4.00;3.00;;;;;24.32;37.73;99400.52;113321;225;42393;-57
2024/03/30 11:18:32;;;;;;;;;4.00;4.00;;;;;24.32;37.42;99397.65;113136;227;160740;-54
2024/03/30 11:21:20;;;;;;;;;6.00;4.00;;;;;24.16;37.26;99398.39;113393;224;39160;-55
2024/03/30 11:24:05;;;;;;;;;6.00;6.00;;;;;23.99;37.43;99395.66;113156;227;160820;-55
2024/03/30 11:26:56;;;;;;;;;5.00;4.00;;;;;23.84;37.93;99394.46;113331;223;39658;-54
2024/03/30 11:29:43;;;;;;;;;4.50;4.00;;;;;23.78;37.98;99393.26;113151;224;160653;-52
2024/03/30 11:32:34;;;;;;;;;5.00;4.00;;;;;23.74;38.25;99392.03;113382;224;40867;-52
2024/03/30 11:35:16;;;;;;;;;5.00;4.00;;;;;23.69;37.94;99390.35;113202;227;160771;-53
2024/03/30 11:38:06;;;;;;;;;4.00;4.00;;;;;23.59;38.02;99386.20;113360;224;39813;-52
2024/03/30 11:40:51;;;;;;;;;5.00;4.00;;;;;23.41;37.74;99383.66;113209;224;161040;-51
2024/03/30 11:43:46;;;;;;;;;4.00;4.00;;;;;23.29;37.79;99385.02;113318;225;39673;-52
2024/03/30 11:46:27;;;;;;;;;6.00;5.00;;;;;23.26;38.01;99382.59;113374;224;39497;-54
2024/03/30 11:49:02;;;;;;;;;6.00;5.00;;;;;23.30;38.09;99387.27;113338;223;41066;-54
2024/03/30 11:51:43;;;;;;;;;4.00;3.00;;;;;23.25;37.91;99383.31;113359;223;41204;-53
2024/03/30 11:54:37;;;;;;;;;4.00;3.00;;;;;23.15;38.00;99383.61;113176;225;161401;-55
2024/03/30 11:57:15;;;;;;;;;4.00;4.00;;;;;23.21;38.06;99385.02;113313;227;40023;-56
2024/03/30 11:59:54;;;;;;;;;5.00;4.00;;;;;23.22;38.29;99380.44;113171;224;160927;-52
2024/03/30 12:02:34;;;;;;;;;5.00;4.00;;;;;23.18;38.59;99378.02;113326;224;39414;-53
2024/03/30 12:05:10;;;;;;;;;6.00;5.00;;;;;23.21;38.16;99381.56;113193;227;161085;-55
2024/03/30 12:07:46;;;;;;;;;5.00;5.00;;;;;23.15;38.26;99382.79;113321;224;39512;-55
2024/03/30 12:10:21;;;;;;;;;5.50;5.00;;;;;23.17;38.39;99383.10;113321;227;39359;-54
2024/03/30 12:13:08;;;;;;;;;4.00;2.50;;;;;23.18;38.30;99373.39;113275;227;41154;-55
2024/03/30 12:15:42;;;;;;;;;5.00;4.00;;;;;23.13;38.34;99377.25;113304;224;40147;-55
2024/03/30 12:18:31;;;;;;;;;6.00;4.50;;;;;23.12;38.62;99364.77;113101;227;160761;-54
2024/03/30 12:21:09;;;;;;;;;6.00;5.00;;;;;23.16;38.70;99361.17;113368;224;40119;-56
2024/03/30 12:24:23;;;;;;;;;4.00;3.00;;;;;23.18;38.63;99354.48;113215;227;160526;-53
2024/03/30 12:27:43;;;;;;;;;5.00;4.00;;;;;23.24;38.78;99357.16;113355;224;39029;-53
2024/03/30 12:30:29;;;;;;;;;5.00;3.50;;;;;23.31;38.83;99355.17;112968;226;160241;-53
2024/03/30 12:33:06;;;;;;;;;4.00;4.00;;;;;23.35;38.64;99355.88;113102;226;39286;-52